createdAt,value
2019-01-12T00:01:08.302Z,13.63
2019-01-12T00:07:03.297Z,11.16
2019-01-12T00:12:58.307Z,10.57
2019-01-12T00:18:53.315Z,10.86
2019-01-12T00:24:48.299Z,12.9
2019-01-12T00:30:43.369Z,13.96
2019-01-12T00:36:38.343Z,17.22
2019-01-12T00:42:33.343Z,24.11
2019-01-12T00:48:28.362Z,14.7
2019-01-12T00:54:23.367Z,15.29
2019-01-12T01:00:18.348Z,17.57
2019-01-12T01:06:13.329Z,13.28
2019-01-12T01:12:08.359Z,14.96
2019-01-12T01:18:03.352Z,12.54
2019-01-12T01:23:58.343Z,11.4
2019-01-12T01:29:53.342Z,12.35
2019-01-12T01:35:48.324Z,10.96
2019-01-12T01:41:43.335Z,8.56
2019-01-12T01:47:38.371Z,10.36
2019-01-12T01:53:33.379Z,11.93
2019-01-12T01:59:28.352Z,10.5
2019-01-12T02:05:23.386Z,11.85
2019-01-12T02:11:18.375Z,10.52
2019-01-12T02:17:13.436Z,13.59
2019-01-12T02:23:08.365Z,11.71
2019-01-12T02:29:03.371Z,12.69
2019-01-12T02:34:58.377Z,13.16
2019-01-12T02:40:53.442Z,12.32
2019-01-12T02:46:48.408Z,14.6
2019-01-12T02:52:43.397Z,16.09
2019-01-12T02:58:38.375Z,14.7
2019-01-12T03:04:33.374Z,15.87
2019-01-12T03:10:28.394Z,17.18
2019-01-12T03:16:23.420Z,14.83
2019-01-12T03:22:18.418Z,16.3
2019-01-12T03:28:13.414Z,12.64
2019-01-12T03:34:08.425Z,19.78
2019-01-12T03:40:03.425Z,17.66
2019-01-12T03:45:58.418Z,14.6
2019-01-12T03:51:53.410Z,15.03
2019-01-12T03:57:48.404Z,12.6
2019-01-12T04:03:43.405Z,14.95
2019-01-12T04:09:38.422Z,14.49
2019-01-12T04:15:33.435Z,13.27
2019-01-12T04:21:28.440Z,13.75
2019-01-12T04:27:23.412Z,17.31
2019-01-12T04:33:18.451Z,18.83
2019-01-12T04:39:13.420Z,17.36
2019-01-12T04:45:08.432Z,16.02
2019-01-12T04:51:03.439Z,15.62
2019-01-12T04:56:58.466Z,14.53
2019-01-12T05:02:53.439Z,11.78
2019-01-12T05:08:48.455Z,14.73
2019-01-12T05:14:43.464Z,13.53
2019-01-12T05:20:40.653Z,12.98
2019-01-12T05:26:34.457Z,14.87
2019-01-12T05:32:28.471Z,15.01
2019-01-12T05:38:23.446Z,14.13
2019-01-12T05:44:18.438Z,15.28
2019-01-12T05:50:13.449Z,15.18
2019-01-12T05:56:08.488Z,12.13
2019-01-12T06:02:03.459Z,12.84
2019-01-12T06:07:58.457Z,16.18
2019-01-12T06:13:53.469Z,13.82
2019-01-12T06:19:48.481Z,15.24
2019-01-12T06:25:43.477Z,16.93
2019-01-12T06:31:38.471Z,30.61
2019-01-12T06:37:33.562Z,21.95
2019-01-12T06:43:28.463Z,15.9
2019-01-12T06:49:23.494Z,10.84
2019-01-12T06:55:18.491Z,13.25
2019-01-12T07:01:13.542Z,15.77
2019-01-12T07:07:08.490Z,18.34
2019-01-12T07:13:03.495Z,17.05
2019-01-12T07:18:58.499Z,18.77
2019-01-12T07:24:53.553Z,17.17
2019-01-12T07:30:48.514Z,14.44
2019-01-12T07:36:43.487Z,23.54
2019-01-12T07:42:38.555Z,18.88
2019-01-12T07:48:33.506Z,19.67
2019-01-12T07:54:28.514Z,21
2019-01-12T08:00:23.534Z,20.62
2019-01-12T08:06:18.510Z,26.52
2019-01-12T08:12:13.509Z,27.8
2019-01-12T08:18:08.560Z,27.72
2019-01-12T08:24:03.555Z,31.34
2019-01-12T08:29:58.535Z,38.13
2019-01-12T08:35:54.357Z,33.79
2019-01-12T08:41:48.566Z,44.92
2019-01-12T08:47:43.575Z,43.92
2019-01-12T08:53:38.544Z,46.47
2019-01-12T08:59:33.560Z,44.55
2019-01-12T09:05:28.559Z,41.33
2019-01-12T09:11:23.575Z,49.99
2019-01-12T09:17:18.589Z,47.8
2019-01-12T09:23:13.616Z,54.32
2019-01-12T09:29:08.585Z,50.79
2019-01-12T09:35:03.586Z,44.16
2019-01-12T09:40:58.571Z,57.9
2019-01-12T09:46:53.560Z,56.57
2019-01-12T09:52:48.571Z,56.24
2019-01-12T09:58:43.604Z,52.88
2019-01-12T10:04:38.585Z,57.91
2019-01-12T10:10:33.586Z,51.16
2019-01-12T10:16:28.593Z,67.08
2019-01-12T10:22:28.498Z,84.26
2019-01-12T10:28:18.619Z,80.37
2019-01-12T10:34:13.634Z,62.07
2019-01-12T10:40:08.634Z,53.78
2019-01-12T10:46:03.602Z,50.91
2019-01-12T10:51:58.607Z,48.56
2019-01-12T10:57:53.602Z,53.8
2019-01-12T11:03:48.607Z,47.93
2019-01-12T11:09:43.609Z,44.51
2019-01-12T11:15:38.661Z,45.54
2019-01-12T11:21:33.649Z,36.97
2019-01-12T11:27:28.602Z,35.36
2019-01-12T11:33:23.640Z,60.37
2019-01-12T11:39:18.621Z,35.81
2019-01-12T11:45:13.673Z,34.31
2019-01-12T11:51:08.649Z,36.89
2019-01-12T11:57:03.649Z,30.6
2019-01-12T12:02:58.683Z,35.83
2019-01-12T12:08:53.725Z,34.08
2019-01-12T12:14:48.644Z,33.98
2019-01-12T12:20:43.665Z,27.76
2019-01-12T12:26:38.682Z,24.99
2019-01-12T12:32:33.661Z,26.21
2019-01-12T12:38:28.656Z,21.91
2019-01-12T12:44:23.725Z,35.48
2019-01-12T12:50:18.668Z,21.9
2019-01-12T12:56:13.683Z,20.88
2019-01-12T13:02:08.688Z,21.52
2019-01-12T13:08:03.715Z,16.48
2019-01-12T13:13:58.673Z,26.92
2019-01-12T13:19:53.683Z,26.5
2019-01-12T13:25:48.709Z,22.95
2019-01-12T13:31:43.693Z,16.62
2019-01-12T13:37:38.696Z,16.49
2019-01-12T13:43:33.705Z,13.44
2019-01-12T13:49:28.703Z,21.17
2019-01-12T13:55:23.747Z,17.13
2019-01-12T14:01:18.724Z,21.14
2019-01-12T14:07:13.726Z,23.07
2019-01-12T14:13:08.717Z,18.35
2019-01-12T14:19:03.724Z,24.43
2019-01-12T14:24:58.734Z,23.37
2019-01-12T14:30:53.753Z,18.45
2019-01-12T14:36:48.715Z,23.76
2019-01-12T14:42:43.733Z,22.08
2019-01-12T14:48:38.726Z,17.11
2019-01-12T14:54:33.737Z,13.62
2019-01-12T15:00:28.736Z,12.26
2019-01-12T15:06:23.793Z,16.73
2019-01-12T15:12:18.765Z,19.42
2019-01-12T15:18:13.787Z,24.68
2019-01-12T15:24:10.167Z,26.58
2019-01-12T15:30:03.739Z,24.7
2019-01-12T15:35:58.753Z,21.17
2019-01-12T15:41:53.772Z,20.91
2019-01-12T15:47:48.771Z,24.99
2019-01-12T15:53:43.807Z,18.31
2019-01-12T15:59:38.768Z,19.61
2019-01-12T16:05:33.792Z,17.68
2019-01-12T16:11:28.769Z,20
2019-01-12T16:17:23.791Z,20.51
2019-01-12T16:23:18.786Z,32.06
2019-01-12T16:29:13.774Z,22.4
2019-01-12T16:35:08.784Z,22.67
2019-01-12T16:41:03.786Z,20.41
2019-01-12T16:46:58.774Z,24.01
2019-01-12T16:52:53.787Z,21.17
2019-01-12T16:58:48.790Z,21.08
2019-01-12T17:04:43.819Z,18.18
2019-01-12T17:10:38.816Z,20.25
2019-01-12T17:16:33.801Z,17.23
2019-01-12T17:22:28.810Z,17.39
2019-01-12T17:28:23.816Z,20.32
2019-01-12T17:34:18.837Z,78.61
2019-01-12T17:40:13.816Z,15.34
2019-01-12T17:46:08.846Z,18.33
2019-01-12T17:52:03.832Z,15.94
2019-01-12T17:57:58.820Z,18.79
2019-01-12T18:03:53.843Z,19.55
2019-01-12T18:09:48.861Z,19.49
2019-01-12T18:15:43.829Z,16.34
2019-01-12T18:21:38.904Z,17.88
2019-01-12T18:27:33.864Z,16.82
2019-01-12T18:33:28.877Z,21.89
2019-01-12T18:39:23.866Z,17.72
2019-01-12T18:45:18.869Z,15.03
2019-01-12T18:51:13.930Z,13.95
2019-01-12T18:57:08.873Z,19.6
2019-01-12T19:03:03.856Z,18.36
2019-01-12T19:08:58.853Z,20.87
2019-01-12T19:14:53.876Z,19.47
2019-01-12T19:20:48.912Z,18.01
2019-01-12T19:26:43.900Z,22.55
2019-01-12T19:32:38.865Z,22.62
2019-01-12T19:38:33.877Z,21.63
2019-01-12T19:44:28.891Z,28.28
2019-01-12T19:50:23.895Z,30.31
2019-01-12T19:56:18.888Z,23.28
2019-01-12T20:02:13.936Z,25.92
2019-01-12T20:08:08.891Z,24.33
2019-01-12T20:14:03.889Z,22.15
2019-01-12T20:19:58.902Z,28.53
2019-01-12T20:25:53.916Z,26.82
2019-01-12T20:31:48.913Z,28.8
2019-01-12T20:37:43.905Z,31.53
2019-01-12T20:43:38.913Z,31.42
2019-01-12T20:49:33.973Z,25.59
2019-01-12T20:55:28.952Z,26.52
2019-01-12T21:01:23.971Z,24.45
2019-01-12T21:07:18.925Z,27.34
2019-01-12T21:13:13.960Z,37.67
2019-01-12T21:19:08.966Z,39.31
2019-01-12T21:25:03.930Z,33.36
2019-01-12T21:30:58.961Z,38.33
2019-01-12T21:36:53.959Z,38.17
2019-01-12T21:42:48.938Z,33.82
2019-01-12T21:48:43.920Z,32.33
2019-01-12T21:54:38.961Z,41.51
2019-01-12T22:00:33.976Z,49.89
2019-01-12T22:06:29.020Z,36.91
2019-01-12T22:12:23.936Z,46.89
2019-01-12T22:18:18.985Z,46.33
2019-01-12T22:24:13.960Z,50.4
2019-01-12T22:30:08.947Z,38.67
2019-01-12T22:36:03.960Z,42.84
2019-01-12T22:41:58.991Z,41.3
2019-01-12T22:47:53.975Z,44.04
2019-01-12T22:53:48.961Z,44.61
2019-01-12T22:59:43.980Z,39.71
2019-01-12T23:05:38.985Z,40.82
2019-01-12T23:11:33.973Z,43.83
2019-01-12T23:17:28.973Z,47.76
2019-01-12T23:23:24.000Z,38.02
2019-01-12T23:29:18.989Z,30.95
2019-01-12T23:35:14.024Z,32.97
2019-01-12T23:41:09.002Z,39.68
2019-01-12T23:47:04.003Z,37.11
2019-01-12T23:52:58.984Z,0
2019-01-12T23:58:54.050Z,41.11
